sensor_id;sensor_type;location;lat;lon;timestamp;P1;durP1;ratioP1;P2;durP2;ratioP2
51566;SDS011;37657;53.182;5.638;2022-12-22T00:01:33;34.80;;;31.08;;
51566;SDS011;37657;53.182;5.638;2022-12-22T00:04:18;48.38;;;36.03;;
51566;SDS011;37657;53.182;5.638;2022-12-22T00:07:03;40.38;;;31.92;;
51566;SDS011;37657;53.182;5.638;2022-12-22T00:09:47;43.03;;;32.55;;
51566;SDS011;37657;53.182;5.638;2022-12-22T00:12:31;45.28;;;35.50;;
51566;SDS011;37657;53.182;5.638;2022-12-22T00:15:17;41.08;;;31.77;;
51566;SDS011;37657;53.182;5.638;2022-12-22T00:18:02;34.75;;;28.45;;
51566;SDS011;37657;53.182;5.638;2022-12-22T00:20:47;42.38;;;32.65;;
51566;SDS011;37657;53.182;5.638;2022-12-22T00:23:32;63.83;;;37.30;;
51566;SDS011;37657;53.182;5.638;2022-12-22T00:26:16;40.03;;;33.40;;
51566;SDS011;37657;53.182;5.638;2022-12-22T00:29:01;35.92;;;32.40;;
51566;SDS011;37657;53.182;5.638;2022-12-22T00:31:46;37.83;;;33.67;;
51566;SDS011;37657;53.182;5.638;2022-12-22T00:34:32;41.97;;;30.02;;
51566;SDS011;37657;53.182;5.638;2022-12-22T00:37:22;37.75;;;30.58;;
51566;SDS011;37657;53.182;5.638;2022-12-22T00:40:15;42.13;;;34.33;;
51566;SDS011;37657;53.182;5.638;2022-12-22T00:43:01;43.85;;;34.47;;
51566;SDS011;37657;53.182;5.638;2022-12-22T00:45:45;42.97;;;33.00;;
51566;SDS011;37657;53.182;5.638;2022-12-22T00:48:29;36.83;;;30.70;;
51566;SDS011;37657;53.182;5.638;2022-12-22T00:51:14;48.95;;;35.20;;
51566;SDS011;37657;53.182;5.638;2022-12-22T00:54:00;45.67;;;32.15;;
51566;SDS011;37657;53.182;5.638;2022-12-22T00:56:44;38.10;;;30.17;;
51566;SDS011;37657;53.182;5.638;2022-12-22T00:59:29;34.58;;;28.15;;
51566;SDS011;37657;53.182;5.638;2022-12-22T01:02:13;44.30;;;32.13;;
51566;SDS011;37657;53.182;5.638;2022-12-22T01:04:58;38.35;;;30.38;;
51566;SDS011;37657;53.182;5.638;2022-12-22T01:07:42;39.58;;;32.38;;
51566;SDS011;37657;53.182;5.638;2022-12-22T01:10:26;37.83;;;33.22;;
51566;SDS011;37657;53.182;5.638;2022-12-22T01:13:11;38.08;;;32.92;;
51566;SDS011;37657;53.182;5.638;2022-12-22T01:15:56;36.97;;;30.52;;
51566;SDS011;37657;53.182;5.638;2022-12-22T01:18:40;38.58;;;31.30;;
51566;SDS011;37657;53.182;5.638;2022-12-22T01:21:25;50.40;;;37.60;;
51566;SDS011;37657;53.182;5.638;2022-12-22T01:24:11;37.20;;;30.58;;
51566;SDS011;37657;53.182;5.638;2022-12-22T01:26:56;48.47;;;33.38;;
51566;SDS011;37657;53.182;5.638;2022-12-22T01:29:41;45.65;;;32.28;;
51566;SDS011;37657;53.182;5.638;2022-12-22T01:32:25;37.38;;;32.20;;
51566;SDS011;37657;53.182;5.638;2022-12-22T01:35:20;44.15;;;34.05;;
51566;SDS011;37657;53.182;5.638;2022-12-22T01:38:05;45.08;;;33.83;;
51566;SDS011;37657;53.182;5.638;2022-12-22T01:40:49;31.80;;;27.75;;
51566;SDS011;37657;53.182;5.638;2022-12-22T01:43:34;34.00;;;29.60;;
51566;SDS011;37657;53.182;5.638;2022-12-22T01:49:07;40.45;;;32.95;;
51566;SDS011;37657;53.182;5.638;2022-12-22T01:51:53;35.08;;;29.10;;
51566;SDS011;37657;53.182;5.638;2022-12-22T01:54:37;38.67;;;31.35;;
51566;SDS011;37657;53.182;5.638;2022-12-22T01:57:22;43.83;;;33.78;;
51566;SDS011;37657;53.182;5.638;2022-12-22T02:00:07;46.58;;;32.60;;
51566;SDS011;37657;53.182;5.638;2022-12-22T02:02:51;37.10;;;33.13;;
51566;SDS011;37657;53.182;5.638;2022-12-22T02:05:35;39.17;;;33.67;;
51566;SDS011;37657;53.182;5.638;2022-12-22T02:08:32;37.28;;;30.90;;
51566;SDS011;37657;53.182;5.638;2022-12-22T02:14:19;34.10;;;29.20;;
51566;SDS011;37657;53.182;5.638;2022-12-22T02:17:16;51.30;;;29.75;;
51566;SDS011;37657;53.182;5.638;2022-12-22T02:20:17;35.38;;;30.25;;
51566;SDS011;37657;53.182;5.638;2022-12-22T02:26:22;31.60;;;27.98;;
51566;SDS011;37657;53.182;5.638;2022-12-22T02:29:13;35.55;;;26.80;;
51566;SDS011;37657;53.182;5.638;2022-12-22T02:31:59;36.28;;;26.73;;
51566;SDS011;37657;53.182;5.638;2022-12-22T02:34:43;30.08;;;26.00;;
51566;SDS011;37657;53.182;5.638;2022-12-22T02:37:35;41.60;;;24.17;;
51566;SDS011;37657;53.182;5.638;2022-12-22T02:40:48;33.30;;;23.90;;
51566;SDS011;37657;53.182;5.638;2022-12-22T02:46:57;35.45;;;25.38;;
51566;SDS011;37657;53.182;5.638;2022-12-22T02:49:52;30.77;;;24.15;;
51566;SDS011;37657;53.182;5.638;2022-12-22T02:52:40;31.13;;;23.27;;
51566;SDS011;37657;53.182;5.638;2022-12-22T02:55:26;27.95;;;23.23;;
51566;SDS011;37657;53.182;5.638;2022-12-22T02:58:11;26.17;;;23.10;;
51566;SDS011;37657;53.182;5.638;2022-12-22T03:00:57;29.63;;;24.27;;
51566;SDS011;37657;53.182;5.638;2022-12-22T03:03:42;34.97;;;26.92;;
51566;SDS011;37657;53.182;5.638;2022-12-22T03:06:26;28.48;;;25.17;;
51566;SDS011;37657;53.182;5.638;2022-12-22T03:09:11;39.17;;;25.50;;
51566;SDS011;37657;53.182;5.638;2022-12-22T03:11:55;31.00;;;23.67;;
51566;SDS011;37657;53.182;5.638;2022-12-22T03:14:39;30.30;;;26.95;;
51566;SDS011;37657;53.182;5.638;2022-12-22T03:17:23;29.63;;;23.85;;
51566;SDS011;37657;53.182;5.638;2022-12-22T03:20:07;27.40;;;24.15;;
51566;SDS011;37657;53.182;5.638;2022-12-22T03:22:51;39.63;;;32.03;;
51566;SDS011;37657;53.182;5.638;2022-12-22T03:25:35;39.97;;;30.75;;
51566;SDS011;37657;53.182;5.638;2022-12-22T03:28:19;38.55;;;29.20;;
51566;SDS011;37657;53.182;5.638;2022-12-22T03:30:57;38.38;;;29.77;;
51566;SDS011;37657;53.182;5.638;2022-12-22T03:33:24;48.17;;;35.30;;
51566;SDS011;37657;53.182;5.638;2022-12-22T03:35:50;46.13;;;34.22;;
51566;SDS011;37657;53.182;5.638;2022-12-22T03:38:15;60.35;;;31.73;;
51566;SDS011;37657;53.182;5.638;2022-12-22T03:40:41;44.58;;;31.58;;
51566;SDS011;37657;53.182;5.638;2022-12-22T03:43:09;47.95;;;36.45;;
51566;SDS011;37657;53.182;5.638;2022-12-22T03:45:54;39.92;;;30.90;;
51566;SDS011;37657;53.182;5.638;2022-12-22T03:48:39;41.65;;;28.55;;
51566;SDS011;37657;53.182;5.638;2022-12-22T03:51:04;33.67;;;27.08;;
51566;SDS011;37657;53.182;5.638;2022-12-22T03:53:30;39.20;;;32.72;;
51566;SDS011;37657;53.182;5.638;2022-12-22T03:55:56;35.08;;;29.42;;
51566;SDS011;37657;53.182;5.638;2022-12-22T03:58:21;32.67;;;26.13;;
51566;SDS011;37657;53.182;5.638;2022-12-22T04:00:47;34.47;;;28.13;;
51566;SDS011;37657;53.182;5.638;2022-12-22T04:03:12;37.78;;;28.83;;
51566;SDS011;37657;53.182;5.638;2022-12-22T04:05:38;36.70;;;26.52;;
51566;SDS011;37657;53.182;5.638;2022-12-22T04:08:04;36.92;;;28.58;;
51566;SDS011;37657;53.182;5.638;2022-12-22T04:10:30;31.95;;;27.42;;
51566;SDS011;37657;53.182;5.638;2022-12-22T04:13:14;35.00;;;26.40;;
51566;SDS011;37657;53.182;5.638;2022-12-22T04:15:39;31.02;;;26.13;;
51566;SDS011;37657;53.182;5.638;2022-12-22T04:18:05;33.17;;;24.48;;
51566;SDS011;37657;53.182;5.638;2022-12-22T04:20:30;31.42;;;22.92;;
51566;SDS011;37657;53.182;5.638;2022-12-22T04:22:56;34.72;;;23.92;;
51566;SDS011;37657;53.182;5.638;2022-12-22T04:25:23;27.25;;;23.33;;
51566;SDS011;37657;53.182;5.638;2022-12-22T04:27:49;41.85;;;22.45;;
51566;SDS011;37657;53.182;5.638;2022-12-22T04:30:15;32.72;;;23.40;;
51566;SDS011;37657;53.182;5.638;2022-12-22T04:32:41;27.70;;;21.73;;
51566;SDS011;37657;53.182;5.638;2022-12-22T04:35:06;31.48;;;24.27;;
51566;SDS011;37657;53.182;5.638;2022-12-22T04:37:33;27.50;;;19.92;;
51566;SDS011;37657;53.182;5.638;2022-12-22T04:39:58;21.23;;;17.05;;
51566;SDS011;37657;53.182;5.638;2022-12-22T04:42:24;25.88;;;20.15;;
51566;SDS011;37657;53.182;5.638;2022-12-22T04:44:49;25.67;;;19.88;;
51566;SDS011;37657;53.182;5.638;2022-12-22T04:47:15;25.20;;;18.55;;
51566;SDS011;37657;53.182;5.638;2022-12-22T04:49:41;25.17;;;17.13;;
51566;SDS011;37657;53.182;5.638;2022-12-22T04:52:06;26.85;;;17.83;;
51566;SDS011;37657;53.182;5.638;2022-12-22T04:54:32;28.08;;;22.13;;
51566;SDS011;37657;53.182;5.638;2022-12-22T04:56:57;31.05;;;21.52;;
51566;SDS011;37657;53.182;5.638;2022-12-22T04:59:23;21.25;;;18.42;;
51566;SDS011;37657;53.182;5.638;2022-12-22T05:01:49;35.15;;;21.35;;
51566;SDS011;37657;53.182;5.638;2022-12-22T05:04:14;36.78;;;18.88;;
51566;SDS011;37657;53.182;5.638;2022-12-22T05:06:40;24.65;;;18.08;;
51566;SDS011;37657;53.182;5.638;2022-12-22T05:09:05;64.68;;;19.45;;
51566;SDS011;37657;53.182;5.638;2022-12-22T05:11:31;50.35;;;18.33;;
51566;SDS011;37657;53.182;5.638;2022-12-22T05:13:56;31.33;;;16.42;;
51566;SDS011;37657;53.182;5.638;2022-12-22T05:16:22;34.40;;;18.52;;
51566;SDS011;37657;53.182;5.638;2022-12-22T05:18:47;57.10;;;18.15;;
51566;SDS011;37657;53.182;5.638;2022-12-22T05:21:14;115.90;;;23.10;;
51566;SDS011;37657;53.182;5.638;2022-12-22T05:23:42;132.75;;;20.08;;
51566;SDS011;37657;53.182;5.638;2022-12-22T05:26:09;38.35;;;15.20;;
51566;SDS011;37657;53.182;5.638;2022-12-22T05:28:35;80.40;;;17.30;;
51566;SDS011;37657;53.182;5.638;2022-12-22T05:31:04;62.08;;;14.55;;
51566;SDS011;37657;53.182;5.638;2022-12-22T05:33:31;57.13;;;14.32;;
51566;SDS011;37657;53.182;5.638;2022-12-22T05:35:56;34.50;;;13.18;;
51566;SDS011;37657;53.182;5.638;2022-12-22T05:38:22;121.07;;;19.13;;
51566;SDS011;37657;53.182;5.638;2022-12-22T05:40:47;75.85;;;14.20;;
51566;SDS011;37657;53.182;5.638;2022-12-22T05:43:13;116.00;;;16.25;;
51566;SDS011;37657;53.182;5.638;2022-12-22T05:45:38;53.28;;;11.65;;
51566;SDS011;37657;53.182;5.638;2022-12-22T05:48:05;55.40;;;12.68;;
51566;SDS011;37657;53.182;5.638;2022-12-22T05:50:30;58.75;;;11.77;;
51566;SDS011;37657;53.182;5.638;2022-12-22T05:52:56;49.13;;;11.50;;
51566;SDS011;37657;53.182;5.638;2022-12-22T05:55:22;35.95;;;12.10;;
51566;SDS011;37657;53.182;5.638;2022-12-22T05:57:48;45.83;;;11.27;;
51566;SDS011;37657;53.182;5.638;2022-12-22T06:00:14;48.45;;;10.13;;
51566;SDS011;37657;53.182;5.638;2022-12-22T06:02:41;24.98;;;10.70;;
51566;SDS011;37657;53.182;5.638;2022-12-22T06:05:08;47.60;;;9.75;;
51566;SDS011;37657;53.182;5.638;2022-12-22T06:07:34;16.00;;;8.88;;
51566;SDS011;37657;53.182;5.638;2022-12-22T06:09:59;13.35;;;7.97;;
51566;SDS011;37657;53.182;5.638;2022-12-22T06:12:25;16.40;;;7.57;;
51566;SDS011;37657;53.182;5.638;2022-12-22T06:14:51;14.35;;;8.45;;
51566;SDS011;37657;53.182;5.638;2022-12-22T06:17:16;35.60;;;10.38;;
51566;SDS011;37657;53.182;5.638;2022-12-22T06:19:42;14.35;;;8.60;;
51566;SDS011;37657;53.182;5.638;2022-12-22T06:22:07;35.05;;;8.48;;
51566;SDS011;37657;53.182;5.638;2022-12-22T06:24:33;21.83;;;8.60;;
51566;SDS011;37657;53.182;5.638;2022-12-22T06:26:59;26.77;;;7.85;;
51566;SDS011;37657;53.182;5.638;2022-12-22T06:29:24;30.67;;;7.80;;
51566;SDS011;37657;53.182;5.638;2022-12-22T06:31:50;37.15;;;8.40;;
51566;SDS011;37657;53.182;5.638;2022-12-22T06:34:15;23.45;;;6.55;;
51566;SDS011;37657;53.182;5.638;2022-12-22T06:36:44;31.23;;;7.88;;
51566;SDS011;37657;53.182;5.638;2022-12-22T06:39:10;26.27;;;8.23;;
51566;SDS011;37657;53.182;5.638;2022-12-22T06:41:37;43.97;;;7.97;;
51566;SDS011;37657;53.182;5.638;2022-12-22T06:44:21;26.35;;;5.78;;
51566;SDS011;37657;53.182;5.638;2022-12-22T06:46:47;30.63;;;6.03;;
51566;SDS011;37657;53.182;5.638;2022-12-22T06:49:12;13.93;;;6.47;;
51566;SDS011;37657;53.182;5.638;2022-12-22T06:51:38;20.33;;;5.55;;
51566;SDS011;37657;53.182;5.638;2022-12-22T06:54:03;24.38;;;6.22;;
51566;SDS011;37657;53.182;5.638;2022-12-22T06:56:29;28.13;;;6.13;;
51566;SDS011;37657;53.182;5.638;2022-12-22T06:58:54;19.15;;;5.68;;
51566;SDS011;37657;53.182;5.638;2022-12-22T07:01:20;19.38;;;5.05;;
51566;SDS011;37657;53.182;5.638;2022-12-22T07:03:45;14.23;;;5.65;;
51566;SDS011;37657;53.182;5.638;2022-12-22T07:06:11;24.30;;;4.90;;
51566;SDS011;37657;53.182;5.638;2022-12-22T07:08:36;25.70;;;5.18;;
51566;SDS011;37657;53.182;5.638;2022-12-22T07:11:02;15.50;;;4.53;;
51566;SDS011;37657;53.182;5.638;2022-12-22T07:13:29;10.93;;;4.78;;
51566;SDS011;37657;53.182;5.638;2022-12-22T07:15:57;17.83;;;3.97;;
51566;SDS011;37657;53.182;5.638;2022-12-22T07:18:24;47.30;;;8.13;;
51566;SDS011;37657;53.182;5.638;2022-12-22T07:20:49;39.63;;;5.80;;
51566;SDS011;37657;53.182;5.638;2022-12-22T07:23:15;80.35;;;8.35;;
51566;SDS011;37657;53.182;5.638;2022-12-22T07:25:41;72.57;;;8.10;;
51566;SDS011;37657;53.182;5.638;2022-12-22T07:28:06;31.75;;;6.15;;
51566;SDS011;37657;53.182;5.638;2022-12-22T07:30:32;38.72;;;5.65;;
51566;SDS011;37657;53.182;5.638;2022-12-22T07:33:00;35.25;;;5.05;;
51566;SDS011;37657;53.182;5.638;2022-12-22T07:35:26;20.67;;;5.35;;
51566;SDS011;37657;53.182;5.638;2022-12-22T07:37:51;13.07;;;4.63;;
51566;SDS011;37657;53.182;5.638;2022-12-22T07:40:17;16.45;;;4.47;;
51566;SDS011;37657;53.182;5.638;2022-12-22T07:42:42;27.92;;;6.68;;
51566;SDS011;37657;53.182;5.638;2022-12-22T07:45:08;28.45;;;5.55;;
51566;SDS011;37657;53.182;5.638;2022-12-22T07:47:35;28.25;;;4.70;;
51566;SDS011;37657;53.182;5.638;2022-12-22T07:50:00;15.13;;;4.25;;
51566;SDS011;37657;53.182;5.638;2022-12-22T07:52:45;32.72;;;5.35;;
51566;SDS011;37657;53.182;5.638;2022-12-22T07:55:10;14.50;;;4.43;;
51566;SDS011;37657;53.182;5.638;2022-12-22T07:57:36;12.38;;;4.72;;
51566;SDS011;37657;53.182;5.638;2022-12-22T08:00:02;17.08;;;3.90;;
51566;SDS011;37657;53.182;5.638;2022-12-22T08:02:28;40.35;;;5.88;;
51566;SDS011;37657;53.182;5.638;2022-12-22T08:04:53;13.93;;;3.15;;
51566;SDS011;37657;53.182;5.638;2022-12-22T08:07:19;30.38;;;4.07;;
51566;SDS011;37657;53.182;5.638;2022-12-22T08:09:44;37.45;;;4.90;;
51566;SDS011;37657;53.182;5.638;2022-12-22T08:12:10;48.83;;;5.97;;
51566;SDS011;37657;53.182;5.638;2022-12-22T08:14:35;61.05;;;5.60;;
51566;SDS011;37657;53.182;5.638;2022-12-22T08:17:01;31.33;;;5.57;;
51566;SDS011;37657;53.182;5.638;2022-12-22T08:19:26;55.92;;;5.75;;
51566;SDS011;37657;53.182;5.638;2022-12-22T08:21:52;35.08;;;5.22;;
51566;SDS011;37657;53.182;5.638;2022-12-22T08:24:18;63.10;;;6.78;;
51566;SDS011;37657;53.182;5.638;2022-12-22T08:26:44;20.60;;;4.95;;
51566;SDS011;37657;53.182;5.638;2022-12-22T08:29:14;9.50;;;4.35;;
51566;SDS011;37657;53.182;5.638;2022-12-22T08:31:51;69.80;;;8.98;;
51566;SDS011;37657;53.182;5.638;2022-12-22T08:34:16;100.65;;;9.90;;
51566;SDS011;37657;53.182;5.638;2022-12-22T08:36:46;44.17;;;7.15;;
51566;SDS011;37657;53.182;5.638;2022-12-22T08:39:15;55.38;;;7.30;;
51566;SDS011;37657;53.182;5.638;2022-12-22T08:41:42;20.20;;;4.20;;
51566;SDS011;37657;53.182;5.638;2022-12-22T08:44:18;4.68;;;3.58;;
51566;SDS011;37657;53.182;5.638;2022-12-22T08:46:47;6.57;;;4.05;;
51566;SDS011;37657;53.182;5.638;2022-12-22T08:49:14;5.05;;;3.72;;
51566;SDS011;37657;53.182;5.638;2022-12-22T08:51:40;5.38;;;4.28;;
51566;SDS011;37657;53.182;5.638;2022-12-22T08:54:06;8.25;;;4.28;;
51566;SDS011;37657;53.182;5.638;2022-12-22T08:56:33;6.45;;;5.15;;
51566;SDS011;37657;53.182;5.638;2022-12-22T08:58:58;5.05;;;4.25;;
51566;SDS011;37657;53.182;5.638;2022-12-22T09:01:29;6.18;;;5.22;;
51566;SDS011;37657;53.182;5.638;2022-12-22T09:03:55;7.35;;;4.68;;
51566;SDS011;37657;53.182;5.638;2022-12-22T09:06:21;6.57;;;4.47;;
51566;SDS011;37657;53.182;5.638;2022-12-22T09:08:52;6.80;;;4.38;;
51566;SDS011;37657;53.182;5.638;2022-12-22T09:11:22;6.25;;;5.20;;
51566;SDS011;37657;53.182;5.638;2022-12-22T09:13:52;10.43;;;5.72;;
51566;SDS011;37657;53.182;5.638;2022-12-22T09:16:19;7.70;;;4.75;;
51566;SDS011;37657;53.182;5.638;2022-12-22T09:18:46;8.35;;;4.80;;
51566;SDS011;37657;53.182;5.638;2022-12-22T09:21:12;4.95;;;3.90;;
51566;SDS011;37657;53.182;5.638;2022-12-22T09:23:37;7.40;;;5.53;;
51566;SDS011;37657;53.182;5.638;2022-12-22T09:26:07;6.78;;;4.95;;
51566;SDS011;37657;53.182;5.638;2022-12-22T09:28:37;7.32;;;4.57;;
51566;SDS011;37657;53.182;5.638;2022-12-22T09:31:03;6.68;;;4.82;;
51566;SDS011;37657;53.182;5.638;2022-12-22T09:33:30;6.45;;;4.68;;
51566;SDS011;37657;53.182;5.638;2022-12-22T09:35:56;7.40;;;3.92;;
51566;SDS011;37657;53.182;5.638;2022-12-22T09:38:24;8.90;;;4.95;;
51566;SDS011;37657;53.182;5.638;2022-12-22T09:40:52;11.73;;;4.75;;
51566;SDS011;37657;53.182;5.638;2022-12-22T09:43:17;9.88;;;5.32;;
51566;SDS011;37657;53.182;5.638;2022-12-22T09:45:46;7.57;;;4.97;;
51566;SDS011;37657;53.182;5.638;2022-12-22T09:48:12;10.48;;;5.43;;
51566;SDS011;37657;53.182;5.638;2022-12-22T09:50:39;9.07;;;4.80;;
51566;SDS011;37657;53.182;5.638;2022-12-22T09:53:07;11.63;;;5.47;;
51566;SDS011;37657;53.182;5.638;2022-12-22T09:55:45;8.27;;;4.57;;
51566;SDS011;37657;53.182;5.638;2022-12-22T09:58:18;9.43;;;5.30;;
51566;SDS011;37657;53.182;5.638;2022-12-22T10:00:54;9.52;;;4.57;;
51566;SDS011;37657;53.182;5.638;2022-12-22T10:06:20;10.73;;;4.95;;
51566;SDS011;37657;53.182;5.638;2022-12-22T10:09:13;7.75;;;3.63;;
51566;SDS011;37657;53.182;5.638;2022-12-22T10:11:49;8.88;;;4.72;;
51566;SDS011;37657;53.182;5.638;2022-12-22T10:14:16;6.30;;;4.10;;
51566;SDS011;37657;53.182;5.638;2022-12-22T10:16:41;6.80;;;2.95;;
51566;SDS011;37657;53.182;5.638;2022-12-22T10:19:08;9.15;;;3.60;;
51566;SDS011;37657;53.182;5.638;2022-12-22T10:21:35;10.55;;;4.35;;
51566;SDS011;37657;53.182;5.638;2022-12-22T10:24:15;11.77;;;5.03;;
51566;SDS011;37657;53.182;5.638;2022-12-22T10:26:43;12.45;;;4.47;;
51566;SDS011;37657;53.182;5.638;2022-12-22T10:29:12;20.20;;;3.78;;
51566;SDS011;37657;53.182;5.638;2022-12-22T10:36:51;8.20;;;3.60;;
51566;SDS011;37657;53.182;5.638;2022-12-22T10:39:22;10.68;;;4.25;;
51566;SDS011;37657;53.182;5.638;2022-12-22T10:41:51;6.28;;;2.83;;
51566;SDS011;37657;53.182;5.638;2022-12-22T10:44:23;11.55;;;3.90;;
51566;SDS011;37657;53.182;5.638;2022-12-22T10:46:56;20.75;;;4.07;;
51566;SDS011;37657;53.182;5.638;2022-12-22T10:49:33;8.52;;;4.15;;
51566;SDS011;37657;53.182;5.638;2022-12-22T10:54:39;6.60;;;3.95;;
51566;SDS011;37657;53.182;5.638;2022-12-22T10:59:48;15.20;;;3.30;;
51566;SDS011;37657;53.182;5.638;2022-12-22T11:02:21;9.30;;;3.58;;
51566;SDS011;37657;53.182;5.638;2022-12-22T11:04:50;9.63;;;3.50;;
51566;SDS011;37657;53.182;5.638;2022-12-22T11:07:17;9.30;;;3.72;;
51566;SDS011;37657;53.182;5.638;2022-12-22T11:09:43;9.15;;;4.68;;
51566;SDS011;37657;53.182;5.638;2022-12-22T11:15:09;9.10;;;3.92;;
51566;SDS011;37657;53.182;5.638;2022-12-22T11:17:50;8.60;;;4.82;;
51566;SDS011;37657;53.182;5.638;2022-12-22T11:20:29;6.80;;;3.63;;
51566;SDS011;37657;53.182;5.638;2022-12-22T11:23:14;9.15;;;3.58;;
51566;SDS011;37657;53.182;5.638;2022-12-22T11:26:01;12.43;;;5.32;;
51566;SDS011;37657;53.182;5.638;2022-12-22T11:36:22;8.10;;;4.72;;
51566;SDS011;37657;53.182;5.638;2022-12-22T11:38:57;13.77;;;4.15;;
51566;SDS011;37657;53.182;5.638;2022-12-22T11:50:27;10.90;;;3.55;;
51566;SDS011;37657;53.182;5.638;2022-12-22T11:58:44;10.82;;;3.42;;
51566;SDS011;37657;53.182;5.638;2022-12-22T12:01:30;10.45;;;3.65;;
51566;SDS011;37657;53.182;5.638;2022-12-22T12:14:49;5.85;;;3.00;;
51566;SDS011;37657;53.182;5.638;2022-12-22T12:17:24;13.80;;;6.07;;
51566;SDS011;37657;53.182;5.638;2022-12-22T12:20:02;23.48;;;5.57;;
51566;SDS011;37657;53.182;5.638;2022-12-22T12:25:41;8.68;;;3.97;;
51566;SDS011;37657;53.182;5.638;2022-12-22T12:31:04;16.38;;;10.10;;
51566;SDS011;37657;53.182;5.638;2022-12-22T12:39:00;9.07;;;4.20;;
51566;SDS011;37657;53.182;5.638;2022-12-22T12:44:22;12.38;;;4.65;;
51566;SDS011;37657;53.182;5.638;2022-12-22T12:49:50;21.75;;;5.20;;
51566;SDS011;37657;53.182;5.638;2022-12-22T12:58:02;11.02;;;3.38;;
51566;SDS011;37657;53.182;5.638;2022-12-22T13:02:57;10.88;;;4.53;;
51566;SDS011;37657;53.182;5.638;2022-12-22T13:20:59;9.98;;;3.78;;
51566;SDS011;37657;53.182;5.638;2022-12-22T13:23:27;9.32;;;4.78;;
51566;SDS011;37657;53.182;5.638;2022-12-22T13:25:58;23.15;;;5.90;;
51566;SDS011;37657;53.182;5.638;2022-12-22T13:28:26;7.40;;;4.20;;
51566;SDS011;37657;53.182;5.638;2022-12-22T13:31:00;12.43;;;3.25;;
51566;SDS011;37657;53.182;5.638;2022-12-22T13:33:29;10.93;;;5.40;;
51566;SDS011;37657;53.182;5.638;2022-12-22T13:36:00;13.18;;;3.70;;
51566;SDS011;37657;53.182;5.638;2022-12-22T13:38:35;8.65;;;3.60;;
51566;SDS011;37657;53.182;5.638;2022-12-22T13:41:02;14.27;;;4.35;;
51566;SDS011;37657;53.182;5.638;2022-12-22T13:43:36;10.32;;;3.08;;
51566;SDS011;37657;53.182;5.638;2022-12-22T13:46:02;10.63;;;4.28;;
51566;SDS011;37657;53.182;5.638;2022-12-22T13:51:03;11.68;;;3.55;;
51566;SDS011;37657;53.182;5.638;2022-12-22T13:53:33;9.88;;;3.60;;
51566;SDS011;37657;53.182;5.638;2022-12-22T13:56:45;7.13;;;3.75;;
51566;SDS011;37657;53.182;5.638;2022-12-22T13:58:58;10.18;;;4.00;;
51566;SDS011;37657;53.182;5.638;2022-12-22T14:01:26;6.63;;;3.10;;
51566;SDS011;37657;53.182;5.638;2022-12-22T14:03:53;7.97;;;3.13;;
51566;SDS011;37657;53.182;5.638;2022-12-22T14:06:30;10.23;;;3.10;;
51566;SDS011;37657;53.182;5.638;2022-12-22T14:09:08;6.57;;;2.87;;
51566;SDS011;37657;53.182;5.638;2022-12-22T14:11:34;17.05;;;4.07;;
51566;SDS011;37657;53.182;5.638;2022-12-22T14:13:59;4.90;;;2.70;;
51566;SDS011;37657;53.182;5.638;2022-12-22T14:16:25;8.38;;;2.70;;
51566;SDS011;37657;53.182;5.638;2022-12-22T14:18:51;6.82;;;3.40;;
51566;SDS011;37657;53.182;5.638;2022-12-22T14:21:17;6.28;;;2.70;;
51566;SDS011;37657;53.182;5.638;2022-12-22T14:23:43;6.32;;;3.45;;
51566;SDS011;37657;53.182;5.638;2022-12-22T14:26:14;7.93;;;2.97;;
51566;SDS011;37657;53.182;5.638;2022-12-22T14:28:48;7.00;;;2.70;;
51566;SDS011;37657;53.182;5.638;2022-12-22T14:31:17;6.20;;;3.60;;
51566;SDS011;37657;53.182;5.638;2022-12-22T14:33:51;6.22;;;3.30;;
51566;SDS011;37657;53.182;5.638;2022-12-22T14:36:22;10.45;;;3.15;;
51566;SDS011;37657;53.182;5.638;2022-12-22T14:38:55;9.85;;;3.83;;
51566;SDS011;37657;53.182;5.638;2022-12-22T14:47:01;8.27;;;2.97;;
51566;SDS011;37657;53.182;5.638;2022-12-22T14:49:31;6.80;;;2.65;;
51566;SDS011;37657;53.182;5.638;2022-12-22T14:52:01;4.63;;;2.70;;
51566;SDS011;37657;53.182;5.638;2022-12-22T14:54:31;6.97;;;3.63;;
51566;SDS011;37657;53.182;5.638;2022-12-22T14:56:59;12.05;;;2.95;;
51566;SDS011;37657;53.182;5.638;2022-12-22T14:59:29;5.43;;;2.80;;
51566;SDS011;37657;53.182;5.638;2022-12-22T15:01:57;17.00;;;4.03;;
51566;SDS011;37657;53.182;5.638;2022-12-22T15:04:26;5.20;;;3.03;;
51566;SDS011;37657;53.182;5.638;2022-12-22T15:07:03;5.43;;;2.58;;
51566;SDS011;37657;53.182;5.638;2022-12-22T15:09:42;8.68;;;3.22;;
51566;SDS011;37657;53.182;5.638;2022-12-22T15:12:12;7.00;;;3.30;;
51566;SDS011;37657;53.182;5.638;2022-12-22T15:14:40;9.70;;;3.47;;
51566;SDS011;37657;53.182;5.638;2022-12-22T15:17:11;10.00;;;4.80;;
51566;SDS011;37657;53.182;5.638;2022-12-22T15:19:42;7.97;;;4.25;;
51566;SDS011;37657;53.182;5.638;2022-12-22T15:22:08;9.75;;;3.75;;
51566;SDS011;37657;53.182;5.638;2022-12-22T15:24:33;10.18;;;4.47;;
51566;SDS011;37657;53.182;5.638;2022-12-22T15:26:59;7.53;;;5.07;;
51566;SDS011;37657;53.182;5.638;2022-12-22T15:29:24;10.98;;;6.68;;
51566;SDS011;37657;53.182;5.638;2022-12-22T15:31:50;9.57;;;6.78;;
51566;SDS011;37657;53.182;5.638;2022-12-22T15:34:23;7.30;;;5.78;;
51566;SDS011;37657;53.182;5.638;2022-12-22T15:36:50;16.35;;;9.63;;
51566;SDS011;37657;53.182;5.638;2022-12-22T15:39:17;14.57;;;8.70;;
51566;SDS011;37657;53.182;5.638;2022-12-22T15:41:44;16.35;;;10.85;;
51566;SDS011;37657;53.182;5.638;2022-12-22T15:44:10;16.65;;;12.00;;
51566;SDS011;37657;53.182;5.638;2022-12-22T15:46:35;18.48;;;15.00;;
51566;SDS011;37657;53.182;5.638;2022-12-22T15:49:03;11.73;;;10.25;;
51566;SDS011;37657;53.182;5.638;2022-12-22T15:51:29;14.45;;;11.05;;
51566;SDS011;37657;53.182;5.638;2022-12-22T15:53:56;15.57;;;13.23;;
51566;SDS011;37657;53.182;5.638;2022-12-22T15:56:23;17.83;;;12.02;;
51566;SDS011;37657;53.182;5.638;2022-12-22T15:58:50;14.65;;;11.98;;
51566;SDS011;37657;53.182;5.638;2022-12-22T16:01:16;16.05;;;12.50;;
51566;SDS011;37657;53.182;5.638;2022-12-22T16:03:42;12.25;;;10.93;;
51566;SDS011;37657;53.182;5.638;2022-12-22T16:06:14;16.42;;;14.05;;
51566;SDS011;37657;53.182;5.638;2022-12-22T16:08:42;16.10;;;14.40;;
51566;SDS011;37657;53.182;5.638;2022-12-22T16:11:13;15.60;;;12.73;;
51566;SDS011;37657;53.182;5.638;2022-12-22T16:13:39;19.38;;;11.88;;
51566;SDS011;37657;53.182;5.638;2022-12-22T16:16:05;17.65;;;15.75;;
51566;SDS011;37657;53.182;5.638;2022-12-22T16:18:32;15.27;;;13.55;;
51566;SDS011;37657;53.182;5.638;2022-12-22T16:21:00;17.45;;;15.10;;
51566;SDS011;37657;53.182;5.638;2022-12-22T16:23:56;17.60;;;13.70;;
51566;SDS011;37657;53.182;5.638;2022-12-22T16:26:24;17.08;;;15.18;;
51566;SDS011;37657;53.182;5.638;2022-12-22T16:28:50;21.98;;;16.73;;
51566;SDS011;37657;53.182;5.638;2022-12-22T16:31:17;20.30;;;16.95;;
51566;SDS011;37657;53.182;5.638;2022-12-22T16:33:44;19.80;;;17.20;;
51566;SDS011;37657;53.182;5.638;2022-12-22T16:36:10;17.88;;;16.00;;
51566;SDS011;37657;53.182;5.638;2022-12-22T16:38:36;25.20;;;15.85;;
51566;SDS011;37657;53.182;5.638;2022-12-22T16:41:01;21.13;;;18.88;;
51566;SDS011;37657;53.182;5.638;2022-12-22T16:43:32;21.00;;;17.52;;
51566;SDS011;37657;53.182;5.638;2022-12-22T16:46:01;25.88;;;19.75;;
51566;SDS011;37657;53.182;5.638;2022-12-22T16:48:31;19.48;;;17.13;;
51566;SDS011;37657;53.182;5.638;2022-12-22T16:50:59;22.67;;;18.05;;